EGAC

Belfast/George Best Belfast City Airport

Airport
ICAO code
EGAC
IATA Code
BHD
Summary
ICAO Region
EUR
ICAO Territory
Location

Port of Belfast, Northern Ireland

Serving
Belfast
Elevation
15 ft
Coordinates
54° 37' 10" N , 5° 52' 26" W
KCC
Cfb
Metar
Observation
EGAC 171250Z AUTO 13007KT 090V170 9999 FEW022 BKN028 OVC032 16/11 Q1017
Station
Belfast / Harbour
Date/Time
2022-08-17 12:50:00
Wind direction
130°
Wind speed
07 kts
Lowest cloud amount
few clouds
Temperature
16°C
Dew point
11°C
Humidity
72%
QNH
1017 hPa
Weather condition
n/a

Description

Belfast City Airport, recently given the commercial identity 'George Best Belfast City' is a downtown airport in Belfast, County Down, Northern Ireland with a single runway and is situated adjacent to the Port of Belfast approximately 3 km from Belfast City Centre. It shares the site with the Bombardier (formerly Short Bros) aircraft manufacturing facility.

Climatology

Temperate Marine climate/Oceanic climate (Köppen climate classification Cfb) - Moderately cool summer and comparatively warm winter.

Runways

Designator Length Width Surface Rops
4/22 1829 45 ASP Yes/Yes

Airport map

Aerial View

SKYbrary Partners:

Safety knowledge contributed by: